sensor_id;sensor_type;location;lat;lon;timestamp;temperature;humidity
13591;DHT22;6866;50.778;7.206;2023-08-20T00:00:11;22.30;99.90
13591;DHT22;6866;50.778;7.206;2023-08-20T00:02:38;22.30;99.90
13591;DHT22;6866;50.778;7.206;2023-08-20T00:05:05;22.40;99.90
13591;DHT22;6866;50.778;7.206;2023-08-20T00:07:31;22.40;99.90
13591;DHT22;6866;50.778;7.206;2023-08-20T00:09:57;22.40;99.90
13591;DHT22;6866;50.778;7.206;2023-08-20T00:12:23;22.30;99.90
13591;DHT22;6866;50.778;7.206;2023-08-20T00:15:03;22.30;99.90
13591;DHT22;6866;50.778;7.206;2023-08-20T00:17:33;22.30;99.90
13591;DHT22;6866;50.778;7.206;2023-08-20T00:19:59;22.30;99.90
13591;DHT22;6866;50.778;7.206;2023-08-20T00:22:25;22.30;99.90
13591;DHT22;6866;50.778;7.206;2023-08-20T00:24:53;22.30;99.90
13591;DHT22;6866;50.778;7.206;2023-08-20T00:27:18;22.20;99.90
13591;DHT22;6866;50.778;7.206;2023-08-20T00:29:44;22.20;99.90
13591;DHT22;6866;50.778;7.206;2023-08-20T00:32:10;22.20;99.90
13591;DHT22;6866;50.778;7.206;2023-08-20T00:34:35;22.20;99.90
13591;DHT22;6866;50.778;7.206;2023-08-20T00:37:02;22.10;99.90
13591;DHT22;6866;50.778;7.206;2023-08-20T00:39:28;22.10;99.90
13591;DHT22;6866;50.778;7.206;2023-08-20T00:41:54;22.00;99.90
13591;DHT22;6866;50.778;7.206;2023-08-20T00:44:19;22.00;99.90
13591;DHT22;6866;50.778;7.206;2023-08-20T00:46:45;22.00;99.90
13591;DHT22;6866;50.778;7.206;2023-08-20T00:49:11;22.00;99.90
13591;DHT22;6866;50.778;7.206;2023-08-20T00:51:36;22.00;99.90
13591;DHT22;6866;50.778;7.206;2023-08-20T00:54:03;22.00;99.90
13591;DHT22;6866;50.778;7.206;2023-08-20T00:56:29;22.00;99.90
13591;DHT22;6866;50.778;7.206;2023-08-20T00:58:55;21.90;99.90
13591;DHT22;6866;50.778;7.206;2023-08-20T01:03:55;21.90;99.90
13591;DHT22;6866;50.778;7.206;2023-08-20T01:09:22;21.70;99.90
13591;DHT22;6866;50.778;7.206;2023-08-20T01:11:56;21.80;99.90
13591;DHT22;6866;50.778;7.206;2023-08-20T01:14:23;21.80;99.90
13591;DHT22;6866;50.778;7.206;2023-08-20T01:16:48;21.80;99.90
13591;DHT22;6866;50.778;7.206;2023-08-20T01:19:19;21.70;99.90
13591;DHT22;6866;50.778;7.206;2023-08-20T01:29:49;21.40;99.90
13591;DHT22;6866;50.778;7.206;2023-08-20T01:32:16;21.40;99.90
13591;DHT22;6866;50.778;7.206;2023-08-20T01:34:43;21.40;99.90
13591;DHT22;6866;50.778;7.206;2023-08-20T01:37:08;21.40;99.90
13591;DHT22;6866;50.778;7.206;2023-08-20T01:39:34;21.30;99.90
13591;DHT22;6866;50.778;7.206;2023-08-20T01:41:59;21.10;99.90
13591;DHT22;6866;50.778;7.206;2023-08-20T01:44:25;21.00;99.90
13591;DHT22;6866;50.778;7.206;2023-08-20T01:46:50;20.90;99.90
13591;DHT22;6866;50.778;7.206;2023-08-20T01:49:16;20.90;99.90
13591;DHT22;6866;50.778;7.206;2023-08-20T01:51:41;20.80;99.90
13591;DHT22;6866;50.778;7.206;2023-08-20T01:54:07;20.80;99.90
13591;DHT22;6866;50.778;7.206;2023-08-20T01:56:32;21.00;99.90
13591;DHT22;6866;50.778;7.206;2023-08-20T01:58:58;21.00;99.90
13591;DHT22;6866;50.778;7.206;2023-08-20T02:01:23;21.10;99.90
13591;DHT22;6866;50.778;7.206;2023-08-20T02:03:50;21.10;99.90
13591;DHT22;6866;50.778;7.206;2023-08-20T02:06:15;21.10;99.90
13591;DHT22;6866;50.778;7.206;2023-08-20T02:08:41;21.00;99.90
13591;DHT22;6866;50.778;7.206;2023-08-20T02:11:06;21.00;99.90
13591;DHT22;6866;50.778;7.206;2023-08-20T02:13:32;21.00;99.90
13591;DHT22;6866;50.778;7.206;2023-08-20T02:16:01;21.00;99.90
13591;DHT22;6866;50.778;7.206;2023-08-20T02:18:27;21.00;99.90
13591;DHT22;6866;50.778;7.206;2023-08-20T02:20:53;21.00;99.90
13591;DHT22;6866;50.778;7.206;2023-08-20T02:23:19;21.00;99.90
13591;DHT22;6866;50.778;7.206;2023-08-20T02:25:44;21.10;99.90
13591;DHT22;6866;50.778;7.206;2023-08-20T02:28:10;21.00;99.90
13591;DHT22;6866;50.778;7.206;2023-08-20T02:30:46;21.00;99.90
13591;DHT22;6866;50.778;7.206;2023-08-20T02:33:12;21.00;99.90
13591;DHT22;6866;50.778;7.206;2023-08-20T02:35:38;21.00;99.90
13591;DHT22;6866;50.778;7.206;2023-08-20T02:38:04;21.00;99.90
13591;DHT22;6866;50.778;7.206;2023-08-20T02:40:30;20.90;99.90
13591;DHT22;6866;50.778;7.206;2023-08-20T02:42:56;20.80;99.90
13591;DHT22;6866;50.778;7.206;2023-08-20T02:45:22;20.80;99.90
13591;DHT22;6866;50.778;7.206;2023-08-20T02:47:48;20.70;99.90
13591;DHT22;6866;50.778;7.206;2023-08-20T02:50:14;20.80;99.90
13591;DHT22;6866;50.778;7.206;2023-08-20T02:52:40;20.80;99.90
13591;DHT22;6866;50.778;7.206;2023-08-20T02:55:06;20.80;99.90
13591;DHT22;6866;50.778;7.206;2023-08-20T02:57:32;20.80;99.90
13591;DHT22;6866;50.778;7.206;2023-08-20T02:59:57;20.80;99.90
13591;DHT22;6866;50.778;7.206;2023-08-20T03:02:23;20.80;99.90
13591;DHT22;6866;50.778;7.206;2023-08-20T03:04:48;20.80;99.90
13591;DHT22;6866;50.778;7.206;2023-08-20T03:07:14;20.80;99.90
13591;DHT22;6866;50.778;7.206;2023-08-20T03:09:39;20.80;99.90
13591;DHT22;6866;50.778;7.206;2023-08-20T03:12:05;20.80;99.90
13591;DHT22;6866;50.778;7.206;2023-08-20T03:14:31;20.80;99.90
13591;DHT22;6866;50.778;7.206;2023-08-20T03:16:56;20.80;99.90
13591;DHT22;6866;50.778;7.206;2023-08-20T03:19:22;20.80;99.90
13591;DHT22;6866;50.778;7.206;2023-08-20T03:21:47;20.80;99.90
13591;DHT22;6866;50.778;7.206;2023-08-20T03:24:13;20.80;99.90
13591;DHT22;6866;50.778;7.206;2023-08-20T03:26:38;20.80;99.90
13591;DHT22;6866;50.778;7.206;2023-08-20T03:29:04;20.80;99.90
13591;DHT22;6866;50.778;7.206;2023-08-20T03:31:30;20.80;99.90
13591;DHT22;6866;50.778;7.206;2023-08-20T03:33:55;20.80;99.90
13591;DHT22;6866;50.778;7.206;2023-08-20T03:36:21;20.80;99.90
13591;DHT22;6866;50.778;7.206;2023-08-20T03:38:46;20.70;99.90
13591;DHT22;6866;50.778;7.206;2023-08-20T03:41:12;20.60;99.90
13591;DHT22;6866;50.778;7.206;2023-08-20T03:43:37;20.40;99.90
13591;DHT22;6866;50.778;7.206;2023-08-20T03:46:03;20.50;99.90
13591;DHT22;6866;50.778;7.206;2023-08-20T03:48:29;20.60;99.90
13591;DHT22;6866;50.778;7.206;2023-08-20T03:50:54;20.50;99.90
13591;DHT22;6866;50.778;7.206;2023-08-20T03:53:20;20.60;99.90
13591;DHT22;6866;50.778;7.206;2023-08-20T03:55:49;20.50;99.90
13591;DHT22;6866;50.778;7.206;2023-08-20T03:58:15;20.50;99.90
13591;DHT22;6866;50.778;7.206;2023-08-20T04:00:41;20.50;99.90
13591;DHT22;6866;50.778;7.206;2023-08-20T04:03:07;20.60;99.90
13591;DHT22;6866;50.778;7.206;2023-08-20T04:05:36;20.60;99.90
13591;DHT22;6866;50.778;7.206;2023-08-20T04:08:03;20.60;99.90
13591;DHT22;6866;50.778;7.206;2023-08-20T04:10:29;20.60;99.90
13591;DHT22;6866;50.778;7.206;2023-08-20T04:12:55;20.60;99.90
13591;DHT22;6866;50.778;7.206;2023-08-20T04:15:20;20.60;99.90
13591;DHT22;6866;50.778;7.206;2023-08-20T04:17:46;20.60;99.90
13591;DHT22;6866;50.778;7.206;2023-08-20T04:20:12;20.60;99.90
13591;DHT22;6866;50.778;7.206;2023-08-20T04:22:38;20.60;99.90
13591;DHT22;6866;50.778;7.206;2023-08-20T04:25:04;20.60;99.90
13591;DHT22;6866;50.778;7.206;2023-08-20T04:27:30;20.70;99.90
13591;DHT22;6866;50.778;7.206;2023-08-20T04:29:56;20.60;99.90
13591;DHT22;6866;50.778;7.206;2023-08-20T04:32:21;20.70;99.90
13591;DHT22;6866;50.778;7.206;2023-08-20T04:34:47;20.70;99.90
13591;DHT22;6866;50.778;7.206;2023-08-20T04:37:15;20.70;99.90
13591;DHT22;6866;50.778;7.206;2023-08-20T04:39:40;20.70;99.90
13591;DHT22;6866;50.778;7.206;2023-08-20T04:42:06;20.60;99.90
13591;DHT22;6866;50.778;7.206;2023-08-20T04:44:31;20.70;99.90
13591;DHT22;6866;50.778;7.206;2023-08-20T04:46:57;20.60;99.90
13591;DHT22;6866;50.778;7.206;2023-08-20T04:49:23;20.50;99.90
13591;DHT22;6866;50.778;7.206;2023-08-20T04:51:51;20.50;99.90
13591;DHT22;6866;50.778;7.206;2023-08-20T04:54:16;20.60;99.90
13591;DHT22;6866;50.778;7.206;2023-08-20T04:56:42;20.70;99.90
13591;DHT22;6866;50.778;7.206;2023-08-20T04:59:07;20.80;99.90
13591;DHT22;6866;50.778;7.206;2023-08-20T05:01:33;20.70;99.90
13591;DHT22;6866;50.778;7.206;2023-08-20T05:03:59;20.70;99.90
13591;DHT22;6866;50.778;7.206;2023-08-20T05:06:24;20.60;99.90
13591;DHT22;6866;50.778;7.206;2023-08-20T05:08:50;20.50;99.90
13591;DHT22;6866;50.778;7.206;2023-08-20T05:11:15;20.40;99.90
13591;DHT22;6866;50.778;7.206;2023-08-20T05:13:44;20.40;99.90
13591;DHT22;6866;50.778;7.206;2023-08-20T05:16:09;20.30;99.90
13591;DHT22;6866;50.778;7.206;2023-08-20T05:18:35;20.30;99.90
13591;DHT22;6866;50.778;7.206;2023-08-20T05:21:00;20.10;99.90
13591;DHT22;6866;50.778;7.206;2023-08-20T05:23:26;20.20;99.90
13591;DHT22;6866;50.778;7.206;2023-08-20T05:25:51;20.40;99.90
13591;DHT22;6866;50.778;7.206;2023-08-20T05:28:17;20.40;99.90
13591;DHT22;6866;50.778;7.206;2023-08-20T05:30:42;20.50;99.90
13591;DHT22;6866;50.778;7.206;2023-08-20T05:33:08;20.50;99.90
13591;DHT22;6866;50.778;7.206;2023-08-20T05:35:33;20.50;99.90
13591;DHT22;6866;50.778;7.206;2023-08-20T05:37:59;20.50;99.90
13591;DHT22;6866;50.778;7.206;2023-08-20T05:40:25;20.40;99.90
13591;DHT22;6866;50.778;7.206;2023-08-20T05:42:50;20.70;99.90
13591;DHT22;6866;50.778;7.206;2023-08-20T05:45:16;20.70;99.90
13591;DHT22;6866;50.778;7.206;2023-08-20T05:47:41;20.70;99.90
13591;DHT22;6866;50.778;7.206;2023-08-20T05:50:07;20.60;99.90
13591;DHT22;6866;50.778;7.206;2023-08-20T05:52:33;20.60;99.90
13591;DHT22;6866;50.778;7.206;2023-08-20T05:54:58;20.80;99.90
13591;DHT22;6866;50.778;7.206;2023-08-20T05:57:24;21.00;99.90
13591;DHT22;6866;50.778;7.206;2023-08-20T05:59:49;21.20;99.90
13591;DHT22;6866;50.778;7.206;2023-08-20T06:02:18;20.90;99.90
13591;DHT22;6866;50.778;7.206;2023-08-20T06:04:44;20.90;99.90
13591;DHT22;6866;50.778;7.206;2023-08-20T06:07:10;21.00;99.90
13591;DHT22;6866;50.778;7.206;2023-08-20T06:09:35;21.00;99.90
13591;DHT22;6866;50.778;7.206;2023-08-20T06:12:00;21.50;99.90
13591;DHT22;6866;50.778;7.206;2023-08-20T06:14:26;22.10;99.90
13591;DHT22;6866;50.778;7.206;2023-08-20T06:16:51;22.10;99.90
13591;DHT22;6866;50.778;7.206;2023-08-20T06:19:17;22.50;99.90
13591;DHT22;6866;50.778;7.206;2023-08-20T06:21:43;22.90;99.90
13591;DHT22;6866;50.778;7.206;2023-08-20T06:24:08;23.70;99.90
13591;DHT22;6866;50.778;7.206;2023-08-20T06:26:34;23.60;99.90
13591;DHT22;6866;50.778;7.206;2023-08-20T06:28:59;23.10;99.90
13591;DHT22;6866;50.778;7.206;2023-08-20T06:31:25;23.80;99.90
13591;DHT22;6866;50.778;7.206;2023-08-20T06:33:50;23.80;99.90
13591;DHT22;6866;50.778;7.206;2023-08-20T06:36:16;23.40;99.90
13591;DHT22;6866;50.778;7.206;2023-08-20T06:38:41;23.50;99.90
13591;DHT22;6866;50.778;7.206;2023-08-20T06:41:07;23.70;99.90
13591;DHT22;6866;50.778;7.206;2023-08-20T06:43:33;23.80;99.90
13591;DHT22;6866;50.778;7.206;2023-08-20T06:45:58;26.60;99.90
13591;DHT22;6866;50.778;7.206;2023-08-20T06:48:24;26.70;99.90
13591;DHT22;6866;50.778;7.206;2023-08-20T06:50:50;26.50;99.90
13591;DHT22;6866;50.778;7.206;2023-08-20T06:53:15;26.40;99.90
13591;DHT22;6866;50.778;7.206;2023-08-20T06:55:41;26.50;99.90
13591;DHT22;6866;50.778;7.206;2023-08-20T06:58:06;26.80;99.90
13591;DHT22;6866;50.778;7.206;2023-08-20T07:00:32;26.50;99.90
13591;DHT22;6866;50.778;7.206;2023-08-20T07:02:57;28.70;97.80
13591;DHT22;6866;50.778;7.206;2023-08-20T07:05:23;29.40;93.70
13591;DHT22;6866;50.778;7.206;2023-08-20T07:07:48;30.80;90.30
13591;DHT22;6866;50.778;7.206;2023-08-20T07:10:14;31.60;82.90
13591;DHT22;6866;50.778;7.206;2023-08-20T07:12:39;31.90;79.70
13591;DHT22;6866;50.778;7.206;2023-08-20T07:15:05;31.10;79.40
13591;DHT22;6866;50.778;7.206;2023-08-20T07:17:31;32.40;75.00
13591;DHT22;6866;50.778;7.206;2023-08-20T07:19:56;32.60;71.80
13591;DHT22;6866;50.778;7.206;2023-08-20T07:22:22;32.10;74.40
13591;DHT22;6866;50.778;7.206;2023-08-20T07:24:47;32.50;72.40
13591;DHT22;6866;50.778;7.206;2023-08-20T07:27:12;32.00;70.40
13591;DHT22;6866;50.778;7.206;2023-08-20T07:29:38;32.20;71.80
13591;DHT22;6866;50.778;7.206;2023-08-20T07:32:04;31.70;71.80
13591;DHT22;6866;50.778;7.206;2023-08-20T07:34:29;30.80;74.90
13591;DHT22;6866;50.778;7.206;2023-08-20T07:36:56;32.40;72.00
13591;DHT22;6866;50.778;7.206;2023-08-20T07:39:22;32.90;70.80
13591;DHT22;6866;50.778;7.206;2023-08-20T07:41:47;33.50;68.90
13591;DHT22;6866;50.778;7.206;2023-08-20T07:44:13;33.70;67.30
13591;DHT22;6866;50.778;7.206;2023-08-20T07:46:39;33.80;66.40
13591;DHT22;6866;50.778;7.206;2023-08-20T07:49:04;33.80;65.90
13591;DHT22;6866;50.778;7.206;2023-08-20T07:51:30;33.40;65.10
13591;DHT22;6866;50.778;7.206;2023-08-20T07:53:55;33.40;66.20
13591;DHT22;6866;50.778;7.206;2023-08-20T07:56:23;34.00;65.40
13591;DHT22;6866;50.778;7.206;2023-08-20T07:58:48;34.20;63.30
13591;DHT22;6866;50.778;7.206;2023-08-20T08:01:14;33.80;64.10
13591;DHT22;6866;50.778;7.206;2023-08-20T08:03:40;33.60;63.40
13591;DHT22;6866;50.778;7.206;2023-08-20T08:06:05;34.00;63.30
13591;DHT22;6866;50.778;7.206;2023-08-20T08:08:31;33.40;62.80
13591;DHT22;6866;50.778;7.206;2023-08-20T08:10:56;33.30;64.30
13591;DHT22;6866;50.778;7.206;2023-08-20T08:13:22;33.20;63.20
13591;DHT22;6866;50.778;7.206;2023-08-20T08:15:48;33.40;63.90
13591;DHT22;6866;50.778;7.206;2023-08-20T08:18:14;33.80;63.50
13591;DHT22;6866;50.778;7.206;2023-08-20T08:20:39;34.10;61.60
13591;DHT22;6866;50.778;7.206;2023-08-20T08:23:05;33.80;60.30
13591;DHT22;6866;50.778;7.206;2023-08-20T08:25:30;33.70;60.70
13591;DHT22;6866;50.778;7.206;2023-08-20T08:27:56;33.00;61.40
13591;DHT22;6866;50.778;7.206;2023-08-20T08:30:22;33.10;61.30
13591;DHT22;6866;50.778;7.206;2023-08-20T08:32:47;33.80;60.80
13591;DHT22;6866;50.778;7.206;2023-08-20T08:35:13;33.90;59.80
13591;DHT22;6866;50.778;7.206;2023-08-20T08:37:38;33.90;60.00
13591;DHT22;6866;50.778;7.206;2023-08-20T08:40:04;33.90;58.30
13591;DHT22;6866;50.778;7.206;2023-08-20T08:42:33;33.90;58.70
13591;DHT22;6866;50.778;7.206;2023-08-20T08:45:00;33.60;58.10
13591;DHT22;6866;50.778;7.206;2023-08-20T08:47:26;34.20;57.50
13591;DHT22;6866;50.778;7.206;2023-08-20T08:49:55;34.60;56.60
13591;DHT22;6866;50.778;7.206;2023-08-20T08:52:22;34.50;56.50
13591;DHT22;6866;50.778;7.206;2023-08-20T08:54:48;34.50;57.00
13591;DHT22;6866;50.778;7.206;2023-08-20T08:57:14;34.40;56.30
13591;DHT22;6866;50.778;7.206;2023-08-20T08:59:39;34.60;57.90
13591;DHT22;6866;50.778;7.206;2023-08-20T09:02:08;34.60;55.00
13591;DHT22;6866;50.778;7.206;2023-08-20T09:04:38;34.50;55.50
13591;DHT22;6866;50.778;7.206;2023-08-20T09:07:03;34.50;54.50
13591;DHT22;6866;50.778;7.206;2023-08-20T09:09:29;34.20;55.40
13591;DHT22;6866;50.778;7.206;2023-08-20T09:11:55;33.80;56.70
13591;DHT22;6866;50.778;7.206;2023-08-20T09:16:54;33.60;55.80
13591;DHT22;6866;50.778;7.206;2023-08-20T09:19:20;34.00;56.50
13591;DHT22;6866;50.778;7.206;2023-08-20T09:21:46;33.60;56.20
13591;DHT22;6866;50.778;7.206;2023-08-20T09:24:12;33.50;54.80
13591;DHT22;6866;50.778;7.206;2023-08-20T09:26:38;33.20;57.50
13591;DHT22;6866;50.778;7.206;2023-08-20T09:29:03;33.40;57.40
13591;DHT22;6866;50.778;7.206;2023-08-20T09:31:39;33.30;55.90
13591;DHT22;6866;50.778;7.206;2023-08-20T09:34:05;32.60;57.80
13591;DHT22;6866;50.778;7.206;2023-08-20T09:36:32;32.50;58.00
13591;DHT22;6866;50.778;7.206;2023-08-20T09:38:57;32.60;57.70
13591;DHT22;6866;50.778;7.206;2023-08-20T09:41:23;32.70;57.60
13591;DHT22;6866;50.778;7.206;2023-08-20T09:43:52;33.10;57.50
13591;DHT22;6866;50.778;7.206;2023-08-20T09:46:21;33.30;56.50
13591;DHT22;6866;50.778;7.206;2023-08-20T09:48:48;33.10;57.30
13591;DHT22;6866;50.778;7.206;2023-08-20T09:51:19;33.10;57.70
13591;DHT22;6866;50.778;7.206;2023-08-20T09:53:53;32.20;57.30
13591;DHT22;6866;50.778;7.206;2023-08-20T09:56:27;32.30;57.80
13591;DHT22;6866;50.778;7.206;2023-08-20T09:58:58;32.10;57.70
13591;DHT22;6866;50.778;7.206;2023-08-20T10:01:25;32.40;56.60
13591;DHT22;6866;50.778;7.206;2023-08-20T10:03:51;32.50;56.70
13591;DHT22;6866;50.778;7.206;2023-08-20T10:06:18;32.50;54.70
13591;DHT22;6866;50.778;7.206;2023-08-20T10:08:45;32.30;55.50
13591;DHT22;6866;50.778;7.206;2023-08-20T10:11:12;31.90;57.40
13591;DHT22;6866;50.778;7.206;2023-08-20T10:13:38;31.90;58.20
13591;DHT22;6866;50.778;7.206;2023-08-20T10:16:04;31.70;57.70
13591;DHT22;6866;50.778;7.206;2023-08-20T10:18:29;31.90;56.70
13591;DHT22;6866;50.778;7.206;2023-08-20T10:20:58;32.10;57.70
13591;DHT22;6866;50.778;7.206;2023-08-20T10:23:25;32.10;57.70
13591;DHT22;6866;50.778;7.206;2023-08-20T10:25:52;32.10;57.10
13591;DHT22;6866;50.778;7.206;2023-08-20T10:28:25;31.80;58.10
13591;DHT22;6866;50.778;7.206;2023-08-20T10:33:34;31.50;58.00
13591;DHT22;6866;50.778;7.206;2023-08-20T10:36:08;31.50;58.30
13591;DHT22;6866;50.778;7.206;2023-08-20T10:38:37;31.20;59.20
13591;DHT22;6866;50.778;7.206;2023-08-20T10:41:06;31.70;57.80
13591;DHT22;6866;50.778;7.206;2023-08-20T10:43:40;31.90;56.50
13591;DHT22;6866;50.778;7.206;2023-08-20T10:46:14;31.80;57.30
13591;DHT22;6866;50.778;7.206;2023-08-20T10:48:46;32.00;57.40
13591;DHT22;6866;50.778;7.206;2023-08-20T10:51:14;31.30;57.80
13591;DHT22;6866;50.778;7.206;2023-08-20T10:53:40;31.40;59.00
13591;DHT22;6866;50.778;7.206;2023-08-20T10:56:10;31.50;59.50
13591;DHT22;6866;50.778;7.206;2023-08-20T10:58:38;31.30;56.80
13591;DHT22;6866;50.778;7.206;2023-08-20T11:01:23;31.60;59.50
13591;DHT22;6866;50.778;7.206;2023-08-20T11:03:50;31.40;58.70
13591;DHT22;6866;50.778;7.206;2023-08-20T11:06:16;31.00;57.90
13591;DHT22;6866;50.778;7.206;2023-08-20T11:08:42;30.60;58.60
13591;DHT22;6866;50.778;7.206;2023-08-20T11:11:08;30.80;59.30
13591;DHT22;6866;50.778;7.206;2023-08-20T11:13:35;31.30;59.50
13591;DHT22;6866;50.778;7.206;2023-08-20T11:16:02;31.60;59.60
13591;DHT22;6866;50.778;7.206;2023-08-20T11:18:29;31.60;58.60
13591;DHT22;6866;50.778;7.206;2023-08-20T11:20:55;31.60;58.60
13591;DHT22;6866;50.778;7.206;2023-08-20T11:23:22;31.50;59.10
13591;DHT22;6866;50.778;7.206;2023-08-20T11:25:47;31.90;60.40
13591;DHT22;6866;50.778;7.206;2023-08-20T11:28:13;32.20;57.80
13591;DHT22;6866;50.778;7.206;2023-08-20T11:30:39;32.10;59.60
13591;DHT22;6866;50.778;7.206;2023-08-20T11:33:04;32.40;58.40
13591;DHT22;6866;50.778;7.206;2023-08-20T11:35:31;32.50;58.60
13591;DHT22;6866;50.778;7.206;2023-08-20T11:37:58;32.60;57.50
13591;DHT22;6866;50.778;7.206;2023-08-20T11:40:23;32.40;57.40
13591;DHT22;6866;50.778;7.206;2023-08-20T11:42:49;32.50;57.60
13591;DHT22;6866;50.778;7.206;2023-08-20T11:45:15;32.00;57.30
13591;DHT22;6866;50.778;7.206;2023-08-20T11:47:41;31.90;58.40
13591;DHT22;6866;50.778;7.206;2023-08-20T11:50:08;31.80;58.50
13591;DHT22;6866;50.778;7.206;2023-08-20T11:52:36;32.20;57.80
13591;DHT22;6866;50.778;7.206;2023-08-20T11:55:03;32.10;57.70
13591;DHT22;6866;50.778;7.206;2023-08-20T11:57:29;32.10;57.70
13591;DHT22;6866;50.778;7.206;2023-08-20T11:59:56;32.10;57.70
13591;DHT22;6866;50.778;7.206;2023-08-20T12:02:27;31.90;57.00
13591;DHT22;6866;50.778;7.206;2023-08-20T12:04:56;31.70;56.30
13591;DHT22;6866;50.778;7.206;2023-08-20T12:07:28;31.70;55.30
13591;DHT22;6866;50.778;7.206;2023-08-20T12:09:54;31.80;55.40
13591;DHT22;6866;50.778;7.206;2023-08-20T12:12:21;31.60;57.70
13591;DHT22;6866;50.778;7.206;2023-08-20T12:14:46;31.80;58.00
13591;DHT22;6866;50.778;7.206;2023-08-20T12:17:12;32.00;56.90
13591;DHT22;6866;50.778;7.206;2023-08-20T12:19:38;32.10;56.50
13591;DHT22;6866;50.778;7.206;2023-08-20T12:22:03;32.40;56.10
13591;DHT22;6866;50.778;7.206;2023-08-20T12:24:29;31.60;55.60
13591;DHT22;6866;50.778;7.206;2023-08-20T12:26:55;31.70;56.30
13591;DHT22;6866;50.778;7.206;2023-08-20T12:29:21;31.90;57.00
13591;DHT22;6866;50.778;7.206;2023-08-20T12:31:46;32.20;55.00
13591;DHT22;6866;50.778;7.206;2023-08-20T12:34:12;32.40;54.20
13591;DHT22;6866;50.778;7.206;2023-08-20T12:36:37;32.40;54.20
13591;DHT22;6866;50.778;7.206;2023-08-20T12:39:04;32.50;54.70
13591;DHT22;6866;50.778;7.206;2023-08-20T12:41:30;32.60;54.60
13591;DHT22;6866;50.778;7.206;2023-08-20T12:43:55;32.30;53.90
13591;DHT22;6866;50.778;7.206;2023-08-20T12:46:21;32.50;55.70
13591;DHT22;6866;50.778;7.206;2023-08-20T12:48:47;32.50;54.00
13591;DHT22;6866;50.778;7.206;2023-08-20T12:51:12;32.20;53.30
13591;DHT22;6866;50.778;7.206;2023-08-20T12:53:39;31.80;53.50
13591;DHT22;6866;50.778;7.206;2023-08-20T12:56:05;32.00;54.90
13591;DHT22;6866;50.778;7.206;2023-08-20T12:58:31;32.20;53.60
13591;DHT22;6866;50.778;7.206;2023-08-20T13:00:56;32.20;52.50
13591;DHT22;6866;50.778;7.206;2023-08-20T13:03:22;32.20;54.00
13591;DHT22;6866;50.778;7.206;2023-08-20T13:05:48;32.30;54.10
13591;DHT22;6866;50.778;7.206;2023-08-20T13:08:14;32.20;53.60
13591;DHT22;6866;50.778;7.206;2023-08-20T13:10:40;32.30;53.60
13591;DHT22;6866;50.778;7.206;2023-08-20T13:13:09;31.80;53.10
13591;DHT22;6866;50.778;7.206;2023-08-20T13:15:35;32.10;54.10
13591;DHT22;6866;50.778;7.206;2023-08-20T13:18:01;32.30;53.20
13591;DHT22;6866;50.778;7.206;2023-08-20T13:20:27;32.20;52.40
13591;DHT22;6866;50.778;7.206;2023-08-20T13:22:53;31.80;53.70
13591;DHT22;6866;50.778;7.206;2023-08-20T13:25:19;31.80;53.90
13591;DHT22;6866;50.778;7.206;2023-08-20T13:27:47;32.10;53.80
13591;DHT22;6866;50.778;7.206;2023-08-20T13:30:12;32.00;54.10
13591;DHT22;6866;50.778;7.206;2023-08-20T13:32:38;32.00;54.60
13591;DHT22;6866;50.778;7.206;2023-08-20T13:35:04;32.00;55.00
13591;DHT22;6866;50.778;7.206;2023-08-20T13:37:30;32.00;55.70
13591;DHT22;6866;50.778;7.206;2023-08-20T13:39:59;31.90;55.80
13591;DHT22;6866;50.778;7.206;2023-08-20T13:42:25;31.90;57.80
13591;DHT22;6866;50.778;7.206;2023-08-20T13:44:51;32.00;55.70
13591;DHT22;6866;50.778;7.206;2023-08-20T13:47:16;31.90;55.90
13591;DHT22;6866;50.778;7.206;2023-08-20T13:49:42;31.80;56.60
13591;DHT22;6866;50.778;7.206;2023-08-20T13:52:09;32.10;55.10
13591;DHT22;6866;50.778;7.206;2023-08-20T13:54:35;31.70;56.90
13591;DHT22;6866;50.778;7.206;2023-08-20T13:57:02;31.40;56.50
13591;DHT22;6866;50.778;7.206;2023-08-20T13:59:29;31.20;56.60
13591;DHT22;6866;50.778;7.206;2023-08-20T14:01:55;31.70;56.70
13591;DHT22;6866;50.778;7.206;2023-08-20T14:04:20;31.60;54.80
13591;DHT22;6866;50.778;7.206;2023-08-20T14:06:46;31.60;56.80
13591;DHT22;6866;50.778;7.206;2023-08-20T14:09:11;31.70;56.80
13591;DHT22;6866;50.778;7.206;2023-08-20T14:11:37;31.70;57.00
13591;DHT22;6866;50.778;7.206;2023-08-20T14:14:03;31.50;56.90
13591;DHT22;6866;50.778;7.206;2023-08-20T14:16:28;31.10;55.80
13591;DHT22;6866;50.778;7.206;2023-08-20T14:18:54;31.10;56.90
13591;DHT22;6866;50.778;7.206;2023-08-20T14:21:19;31.30;56.50
13591;DHT22;6866;50.778;7.206;2023-08-20T14:23:45;31.50;56.70
13591;DHT22;6866;50.778;7.206;2023-08-20T14:26:10;31.70;56.70
13591;DHT22;6866;50.778;7.206;2023-08-20T14:28:36;31.50;57.10
13591;DHT22;6866;50.778;7.206;2023-08-20T14:31:03;31.50;55.70
13591;DHT22;6866;50.778;7.206;2023-08-20T14:33:30;31.60;55.20
13591;DHT22;6866;50.778;7.206;2023-08-20T14:35:55;31.30;55.50
13591;DHT22;6866;50.778;7.206;2023-08-20T14:38:21;31.40;55.60
13591;DHT22;6866;50.778;7.206;2023-08-20T14:40:47;31.50;55.50
13591;DHT22;6866;50.778;7.206;2023-08-20T14:43:12;31.40;56.00
13591;DHT22;6866;50.778;7.206;2023-08-20T14:45:38;31.20;56.90
13591;DHT22;6866;50.778;7.206;2023-08-20T14:48:04;31.30;56.80
13591;DHT22;6866;50.778;7.206;2023-08-20T14:50:30;31.40;56.80
13591;DHT22;6866;50.778;7.206;2023-08-20T14:52:56;31.50;56.10
13591;DHT22;6866;50.778;7.206;2023-08-20T14:55:21;31.50;56.80
13591;DHT22;6866;50.778;7.206;2023-08-20T14:57:47;31.50;56.30
13591;DHT22;6866;50.778;7.206;2023-08-20T15:00:13;31.50;56.90
13591;DHT22;6866;50.778;7.206;2023-08-20T15:02:40;31.50;56.70
13591;DHT22;6866;50.778;7.206;2023-08-20T15:05:06;31.40;56.00
13591;DHT22;6866;50.778;7.206;2023-08-20T15:07:32;31.00;56.30
13591;DHT22;6866;50.778;7.206;2023-08-20T15:09:58;30.90;56.80
13591;DHT22;6866;50.778;7.206;2023-08-20T15:12:23;30.90;56.80
13591;DHT22;6866;50.778;7.206;2023-08-20T15:14:49;31.00;57.50
13591;DHT22;6866;50.778;7.206;2023-08-20T15:17:14;30.90;58.70
13591;DHT22;6866;50.778;7.206;2023-08-20T15:19:40;31.10;57.40
13591;DHT22;6866;50.778;7.206;2023-08-20T15:22:05;31.00;57.60
13591;DHT22;6866;50.778;7.206;2023-08-20T15:24:31;31.00;58.30
13591;DHT22;6866;50.778;7.206;2023-08-20T15:26:57;31.00;58.30
13591;DHT22;6866;50.778;7.206;2023-08-20T15:29:22;30.90;57.20
13591;DHT22;6866;50.778;7.206;2023-08-20T15:31:47;31.10;57.20
13591;DHT22;6866;50.778;7.206;2023-08-20T15:34:17;31.00;57.40
13591;DHT22;6866;50.778;7.206;2023-08-20T15:36:42;30.90;57.10
13591;DHT22;6866;50.778;7.206;2023-08-20T15:39:07;30.80;57.40
13591;DHT22;6866;50.778;7.206;2023-08-20T15:41:33;30.90;58.10
13591;DHT22;6866;50.778;7.206;2023-08-20T15:43:58;30.90;55.80
13591;DHT22;6866;50.778;7.206;2023-08-20T15:46:24;30.90;56.80
13591;DHT22;6866;50.778;7.206;2023-08-20T15:48:49;30.80;57.60
13591;DHT22;6866;50.778;7.206;2023-08-20T15:51:15;30.70;57.00
13591;DHT22;6866;50.778;7.206;2023-08-20T15:53:40;30.50;57.70
13591;DHT22;6866;50.778;7.206;2023-08-20T15:56:06;30.50;57.20